sensor_id;sensor_type;location;lat;lon;timestamp;temperature;humidity
4509;DHT22;2267;48.816;9.230;2022-07-23T00:00:14;28.70;63.70
4509;DHT22;2267;48.816;9.230;2022-07-23T00:02:41;28.60;63.20
4509;DHT22;2267;48.816;9.230;2022-07-23T00:05:08;28.50;63.70
4509;DHT22;2267;48.816;9.230;2022-07-23T00:07:35;28.40;63.70
4509;DHT22;2267;48.816;9.230;2022-07-23T00:10:03;28.30;64.10
4509;DHT22;2267;48.816;9.230;2022-07-23T00:12:30;28.20;64.70
4509;DHT22;2267;48.816;9.230;2022-07-23T00:14:57;28.10;65.00
4509;DHT22;2267;48.816;9.230;2022-07-23T00:17:24;28.10;65.30
4509;DHT22;2267;48.816;9.230;2022-07-23T00:19:51;28.10;65.20
4509;DHT22;2267;48.816;9.230;2022-07-23T00:22:19;28.10;65.60
4509;DHT22;2267;48.816;9.230;2022-07-23T00:24:46;28.00;65.30
4509;DHT22;2267;48.816;9.230;2022-07-23T00:27:33;28.00;65.30
4509;DHT22;2267;48.816;9.230;2022-07-23T00:29:59;28.00;65.10
4509;DHT22;2267;48.816;9.230;2022-07-23T00:32:26;27.90;65.60
4509;DHT22;2267;48.816;9.230;2022-07-23T00:35:13;27.90;65.80
4509;DHT22;2267;48.816;9.230;2022-07-23T00:37:40;27.90;65.50
4509;DHT22;2267;48.816;9.230;2022-07-23T00:40:08;27.70;65.90
4509;DHT22;2267;48.816;9.230;2022-07-23T00:42:35;27.70;66.20
4509;DHT22;2267;48.816;9.230;2022-07-23T00:45:02;27.60;66.20
4509;DHT22;2267;48.816;9.230;2022-07-23T00:47:30;27.50;66.60
4509;DHT22;2267;48.816;9.230;2022-07-23T00:49:56;27.40;67.70
4509;DHT22;2267;48.816;9.230;2022-07-23T00:52:23;27.30;68.30
4509;DHT22;2267;48.816;9.230;2022-07-23T00:54:51;27.30;69.20
4509;DHT22;2267;48.816;9.230;2022-07-23T00:57:18;27.20;69.80
4509;DHT22;2267;48.816;9.230;2022-07-23T00:59:45;27.20;70.10
4509;DHT22;2267;48.816;9.230;2022-07-23T01:02:11;27.20;71.10
4509;DHT22;2267;48.816;9.230;2022-07-23T01:04:38;27.20;70.50
4509;DHT22;2267;48.816;9.230;2022-07-23T01:07:05;27.20;70.60
4509;DHT22;2267;48.816;9.230;2022-07-23T01:09:33;27.20;70.70
4509;DHT22;2267;48.816;9.230;2022-07-23T01:12:00;27.20;71.10
4509;DHT22;2267;48.816;9.230;2022-07-23T01:14:27;27.10;71.40
4509;DHT22;2267;48.816;9.230;2022-07-23T01:16:53;27.10;71.80
4509;DHT22;2267;48.816;9.230;2022-07-23T01:19:21;27.00;72.00
4509;DHT22;2267;48.816;9.230;2022-07-23T01:21:50;27.10;72.10
4509;DHT22;2267;48.816;9.230;2022-07-23T01:24:18;27.00;72.80
4509;DHT22;2267;48.816;9.230;2022-07-23T01:26:48;27.00;72.20
4509;DHT22;2267;48.816;9.230;2022-07-23T01:29:16;27.00;72.50
4509;DHT22;2267;48.816;9.230;2022-07-23T01:31:43;27.00;72.30
4509;DHT22;2267;48.816;9.230;2022-07-23T01:34:11;26.90;71.90
4509;DHT22;2267;48.816;9.230;2022-07-23T01:36:38;27.00;71.80
4509;DHT22;2267;48.816;9.230;2022-07-23T01:39:06;27.00;71.60
4509;DHT22;2267;48.816;9.230;2022-07-23T01:41:33;27.00;71.30
4509;DHT22;2267;48.816;9.230;2022-07-23T01:44:01;26.90;71.00
4509;DHT22;2267;48.816;9.230;2022-07-23T01:46:28;26.80;71.10
4509;DHT22;2267;48.816;9.230;2022-07-23T01:48:55;26.80;71.40
4509;DHT22;2267;48.816;9.230;2022-07-23T01:51:22;26.80;72.00
4509;DHT22;2267;48.816;9.230;2022-07-23T01:53:48;26.80;71.80
4509;DHT22;2267;48.816;9.230;2022-07-23T01:56:15;26.80;71.80
4509;DHT22;2267;48.816;9.230;2022-07-23T01:58:42;26.90;71.70
4509;DHT22;2267;48.816;9.230;2022-07-23T02:01:09;26.80;71.80
4509;DHT22;2267;48.816;9.230;2022-07-23T02:03:36;26.80;71.60
4509;DHT22;2267;48.816;9.230;2022-07-23T02:06:03;26.90;72.10
4509;DHT22;2267;48.816;9.230;2022-07-23T02:08:29;26.90;71.80
4509;DHT22;2267;48.816;9.230;2022-07-23T02:10:56;26.90;71.70
4509;DHT22;2267;48.816;9.230;2022-07-23T02:13:23;26.90;71.80
4509;DHT22;2267;48.816;9.230;2022-07-23T02:15:51;26.90;71.70
4509;DHT22;2267;48.816;9.230;2022-07-23T02:18:18;26.90;71.50
4509;DHT22;2267;48.816;9.230;2022-07-23T02:20:45;26.90;71.70
4509;DHT22;2267;48.816;9.230;2022-07-23T02:23:11;26.90;71.90
4509;DHT22;2267;48.816;9.230;2022-07-23T02:25:38;26.80;72.30
4509;DHT22;2267;48.816;9.230;2022-07-23T02:28:05;26.90;72.40
4509;DHT22;2267;48.816;9.230;2022-07-23T02:30:32;26.90;72.50
4509;DHT22;2267;48.816;9.230;2022-07-23T02:32:59;26.90;72.50
4509;DHT22;2267;48.816;9.230;2022-07-23T02:35:25;26.90;72.40
4509;DHT22;2267;48.816;9.230;2022-07-23T02:37:52;26.90;72.50
4509;DHT22;2267;48.816;9.230;2022-07-23T02:40:19;26.90;72.80
4509;DHT22;2267;48.816;9.230;2022-07-23T02:42:46;26.80;72.60
4509;DHT22;2267;48.816;9.230;2022-07-23T02:45:13;26.80;72.90
4509;DHT22;2267;48.816;9.230;2022-07-23T02:47:40;26.80;72.80
4509;DHT22;2267;48.816;9.230;2022-07-23T02:50:07;26.80;73.20
4509;DHT22;2267;48.816;9.230;2022-07-23T02:52:34;26.80;73.00
4509;DHT22;2267;48.816;9.230;2022-07-23T02:55:01;26.80;73.10
4509;DHT22;2267;48.816;9.230;2022-07-23T02:57:28;26.80;73.10
4509;DHT22;2267;48.816;9.230;2022-07-23T02:59:54;26.80;73.30
4509;DHT22;2267;48.816;9.230;2022-07-23T03:02:21;26.70;73.00
4509;DHT22;2267;48.816;9.230;2022-07-23T03:04:48;26.80;73.30
4509;DHT22;2267;48.816;9.230;2022-07-23T03:07:19;26.80;72.80
4509;DHT22;2267;48.816;9.230;2022-07-23T03:09:47;26.80;72.80
4509;DHT22;2267;48.816;9.230;2022-07-23T03:12:13;26.70;72.80
4509;DHT22;2267;48.816;9.230;2022-07-23T03:14:41;26.60;73.10
4509;DHT22;2267;48.816;9.230;2022-07-23T03:17:08;26.60;73.20
4509;DHT22;2267;48.816;9.230;2022-07-23T03:19:35;26.60;73.60
4509;DHT22;2267;48.816;9.230;2022-07-23T03:22:04;26.50;73.80
4509;DHT22;2267;48.816;9.230;2022-07-23T03:24:31;26.50;74.10
4509;DHT22;2267;48.816;9.230;2022-07-23T03:27:16;26.40;74.50
4509;DHT22;2267;48.816;9.230;2022-07-23T03:29:43;26.40;74.60
4509;DHT22;2267;48.816;9.230;2022-07-23T03:32:10;26.40;74.80
4509;DHT22;2267;48.816;9.230;2022-07-23T03:34:37;26.40;75.00
4509;DHT22;2267;48.816;9.230;2022-07-23T03:37:04;26.40;75.00
4509;DHT22;2267;48.816;9.230;2022-07-23T03:39:31;26.30;75.20
4509;DHT22;2267;48.816;9.230;2022-07-23T03:41:58;26.30;75.30
4509;DHT22;2267;48.816;9.230;2022-07-23T03:44:25;26.30;75.30
4509;DHT22;2267;48.816;9.230;2022-07-23T03:46:52;26.30;76.20
4509;DHT22;2267;48.816;9.230;2022-07-23T03:49:19;26.30;76.40
4509;DHT22;2267;48.816;9.230;2022-07-23T03:51:46;26.30;76.50
4509;DHT22;2267;48.816;9.230;2022-07-23T03:54:13;26.20;77.00
4509;DHT22;2267;48.816;9.230;2022-07-23T03:56:40;26.20;76.90
4509;DHT22;2267;48.816;9.230;2022-07-23T03:59:07;26.20;77.20
4509;DHT22;2267;48.816;9.230;2022-07-23T04:01:33;26.20;77.50
4509;DHT22;2267;48.816;9.230;2022-07-23T04:04:01;26.20;78.50
4509;DHT22;2267;48.816;9.230;2022-07-23T04:06:28;26.20;78.00
4509;DHT22;2267;48.816;9.230;2022-07-23T04:08:54;26.10;77.50
4509;DHT22;2267;48.816;9.230;2022-07-23T04:11:21;26.10;77.60
4509;DHT22;2267;48.816;9.230;2022-07-23T04:13:48;26.20;78.20
4509;DHT22;2267;48.816;9.230;2022-07-23T04:16:15;26.10;78.60
4509;DHT22;2267;48.816;9.230;2022-07-23T04:18:42;26.10;79.10
4509;DHT22;2267;48.816;9.230;2022-07-23T04:21:09;26.10;78.30
4509;DHT22;2267;48.816;9.230;2022-07-23T04:23:36;26.10;77.30
4509;DHT22;2267;48.816;9.230;2022-07-23T04:26:02;26.10;76.60
4509;DHT22;2267;48.816;9.230;2022-07-23T04:28:29;26.10;76.60
4509;DHT22;2267;48.816;9.230;2022-07-23T04:30:57;26.20;76.90
4509;DHT22;2267;48.816;9.230;2022-07-23T04:33:24;26.20;76.80
4509;DHT22;2267;48.816;9.230;2022-07-23T04:35:51;26.20;76.50
4509;DHT22;2267;48.816;9.230;2022-07-23T04:38:19;26.20;76.50
4509;DHT22;2267;48.816;9.230;2022-07-23T04:40:46;26.30;76.30
4509;DHT22;2267;48.816;9.230;2022-07-23T04:43:13;26.30;76.30
4509;DHT22;2267;48.816;9.230;2022-07-23T04:45:39;26.30;76.50
4509;DHT22;2267;48.816;9.230;2022-07-23T04:48:09;26.30;76.40
4509;DHT22;2267;48.816;9.230;2022-07-23T04:50:36;26.30;77.90
4509;DHT22;2267;48.816;9.230;2022-07-23T04:53:03;26.30;76.80
4509;DHT22;2267;48.816;9.230;2022-07-23T04:55:29;26.30;76.50
4509;DHT22;2267;48.816;9.230;2022-07-23T04:57:56;26.30;76.40
4509;DHT22;2267;48.816;9.230;2022-07-23T05:00:23;26.40;76.40
4509;DHT22;2267;48.816;9.230;2022-07-23T05:02:50;26.40;77.00
4509;DHT22;2267;48.816;9.230;2022-07-23T05:05:17;26.40;77.10
4509;DHT22;2267;48.816;9.230;2022-07-23T05:07:43;26.40;77.10
4509;DHT22;2267;48.816;9.230;2022-07-23T05:10:10;26.40;76.50
4509;DHT22;2267;48.816;9.230;2022-07-23T05:12:37;26.40;77.20
4509;DHT22;2267;48.816;9.230;2022-07-23T05:15:04;26.40;78.40
4509;DHT22;2267;48.816;9.230;2022-07-23T05:17:31;26.40;78.30
4509;DHT22;2267;48.816;9.230;2022-07-23T05:19:57;26.50;77.60
4509;DHT22;2267;48.816;9.230;2022-07-23T05:22:27;26.50;77.20
4509;DHT22;2267;48.816;9.230;2022-07-23T05:24:54;26.50;76.80
4509;DHT22;2267;48.816;9.230;2022-07-23T05:27:20;26.60;76.40
4509;DHT22;2267;48.816;9.230;2022-07-23T05:29:47;26.60;75.90
4509;DHT22;2267;48.816;9.230;2022-07-23T05:32:14;26.60;75.80
4509;DHT22;2267;48.816;9.230;2022-07-23T05:34:41;26.60;75.60
4509;DHT22;2267;48.816;9.230;2022-07-23T05:37:08;26.60;75.80
4509;DHT22;2267;48.816;9.230;2022-07-23T05:39:34;26.60;75.80
4509;DHT22;2267;48.816;9.230;2022-07-23T05:42:01;26.70;75.70
4509;DHT22;2267;48.816;9.230;2022-07-23T05:44:28;26.70;75.50
4509;DHT22;2267;48.816;9.230;2022-07-23T05:47:00;26.60;76.80
4509;DHT22;2267;48.816;9.230;2022-07-23T05:49:27;26.60;77.00
4509;DHT22;2267;48.816;9.230;2022-07-23T05:51:54;26.50;76.80
4509;DHT22;2267;48.816;9.230;2022-07-23T05:54:21;26.50;77.40
4509;DHT22;2267;48.816;9.230;2022-07-23T05:56:48;26.60;77.70
4509;DHT22;2267;48.816;9.230;2022-07-23T05:59:16;26.60;77.70
4509;DHT22;2267;48.816;9.230;2022-07-23T06:01:43;26.60;77.20
4509;DHT22;2267;48.816;9.230;2022-07-23T06:04:10;26.60;76.20
4509;DHT22;2267;48.816;9.230;2022-07-23T06:06:37;26.70;75.70
4509;DHT22;2267;48.816;9.230;2022-07-23T06:09:03;26.70;76.40
4509;DHT22;2267;48.816;9.230;2022-07-23T06:11:31;26.70;80.50
4509;DHT22;2267;48.816;9.230;2022-07-23T06:13:58;26.80;81.00
4509;DHT22;2267;48.816;9.230;2022-07-23T06:16:25;26.90;79.40
4509;DHT22;2267;48.816;9.230;2022-07-23T06:18:51;26.90;79.20
4509;DHT22;2267;48.816;9.230;2022-07-23T06:21:18;26.90;79.60
4509;DHT22;2267;48.816;9.230;2022-07-23T06:24:05;26.80;80.50
4509;DHT22;2267;48.816;9.230;2022-07-23T06:26:32;26.90;79.10
4509;DHT22;2267;48.816;9.230;2022-07-23T06:28:59;26.80;78.00
4509;DHT22;2267;48.816;9.230;2022-07-23T06:31:26;26.90;79.10
4509;DHT22;2267;48.816;9.230;2022-07-23T06:33:53;26.90;79.80
4509;DHT22;2267;48.816;9.230;2022-07-23T06:36:20;26.90;80.20
4509;DHT22;2267;48.816;9.230;2022-07-23T06:38:47;27.00;79.10
4509;DHT22;2267;48.816;9.230;2022-07-23T06:41:14;26.90;78.00
4509;DHT22;2267;48.816;9.230;2022-07-23T06:43:41;26.90;79.10
4509;DHT22;2267;48.816;9.230;2022-07-23T06:46:08;26.90;77.50
4509;DHT22;2267;48.816;9.230;2022-07-23T06:48:34;26.90;76.50
4509;DHT22;2267;48.816;9.230;2022-07-23T06:51:03;26.90;76.90
4509;DHT22;2267;48.816;9.230;2022-07-23T06:53:29;26.90;77.30
4509;DHT22;2267;48.816;9.230;2022-07-23T06:55:56;26.90;75.60
4509;DHT22;2267;48.816;9.230;2022-07-23T06:58:23;27.00;75.00
4509;DHT22;2267;48.816;9.230;2022-07-23T07:00:50;27.00;74.50
4509;DHT22;2267;48.816;9.230;2022-07-23T07:03:18;27.00;73.90
4509;DHT22;2267;48.816;9.230;2022-07-23T07:05:45;26.90;74.30
4509;DHT22;2267;48.816;9.230;2022-07-23T07:08:12;26.90;75.00
4509;DHT22;2267;48.816;9.230;2022-07-23T07:10:39;26.80;74.60
4509;DHT22;2267;48.816;9.230;2022-07-23T07:13:06;26.80;74.60
4509;DHT22;2267;48.816;9.230;2022-07-23T07:15:33;26.70;75.00
4509;DHT22;2267;48.816;9.230;2022-07-23T07:18:00;26.60;75.60
4509;DHT22;2267;48.816;9.230;2022-07-23T07:20:27;26.50;76.20
4509;DHT22;2267;48.816;9.230;2022-07-23T07:22:53;26.50;76.70
4509;DHT22;2267;48.816;9.230;2022-07-23T07:25:20;26.50;76.90
4509;DHT22;2267;48.816;9.230;2022-07-23T07:27:47;26.40;77.20
4509;DHT22;2267;48.816;9.230;2022-07-23T07:30:14;26.40;77.30
4509;DHT22;2267;48.816;9.230;2022-07-23T07:32:41;26.30;77.90
4509;DHT22;2267;48.816;9.230;2022-07-23T07:35:24;26.20;77.40
4509;DHT22;2267;48.816;9.230;2022-07-23T07:37:51;26.20;77.60
4509;DHT22;2267;48.816;9.230;2022-07-23T07:40:18;26.20;78.00
4509;DHT22;2267;48.816;9.230;2022-07-23T07:42:50;26.20;77.90
4509;DHT22;2267;48.816;9.230;2022-07-23T07:45:21;26.20;78.30
4509;DHT22;2267;48.816;9.230;2022-07-23T07:47:50;26.20;78.80
4509;DHT22;2267;48.816;9.230;2022-07-23T07:50:17;26.20;80.20
4509;DHT22;2267;48.816;9.230;2022-07-23T07:52:44;26.20;81.10
4509;DHT22;2267;48.816;9.230;2022-07-23T07:55:12;26.20;81.20
4509;DHT22;2267;48.816;9.230;2022-07-23T07:57:40;26.10;81.60
4509;DHT22;2267;48.816;9.230;2022-07-23T08:00:14;26.10;81.80
4509;DHT22;2267;48.816;9.230;2022-07-23T08:02:47;26.10;82.10
4509;DHT22;2267;48.816;9.230;2022-07-23T08:05:22;26.10;82.30
4509;DHT22;2267;48.816;9.230;2022-07-23T08:07:54;26.10;82.40
4509;DHT22;2267;48.816;9.230;2022-07-23T08:10:23;26.20;82.90
4509;DHT22;2267;48.816;9.230;2022-07-23T08:12:52;26.20;82.80
4509;DHT22;2267;48.816;9.230;2022-07-23T08:15:25;26.20;82.70
4509;DHT22;2267;48.816;9.230;2022-07-23T08:17:53;26.20;83.10
4509;DHT22;2267;48.816;9.230;2022-07-23T08:20:21;26.20;84.40
4509;DHT22;2267;48.816;9.230;2022-07-23T08:22:53;26.20;84.20
4509;DHT22;2267;48.816;9.230;2022-07-23T08:25:27;26.30;83.70
4509;DHT22;2267;48.816;9.230;2022-07-23T08:27:54;26.40;83.50
4509;DHT22;2267;48.816;9.230;2022-07-23T08:30:21;26.40;83.10
4509;DHT22;2267;48.816;9.230;2022-07-23T08:32:52;26.40;82.70
4509;DHT22;2267;48.816;9.230;2022-07-23T08:35:25;26.40;81.90
4509;DHT22;2267;48.816;9.230;2022-07-23T08:37:52;26.40;81.60
4509;DHT22;2267;48.816;9.230;2022-07-23T08:40:19;26.30;81.40
4509;DHT22;2267;48.816;9.230;2022-07-23T08:42:50;26.30;80.90
4509;DHT22;2267;48.816;9.230;2022-07-23T08:45:19;26.30;81.20
4509;DHT22;2267;48.816;9.230;2022-07-23T08:47:56;26.30;80.80
4509;DHT22;2267;48.816;9.230;2022-07-23T08:50:24;26.30;80.90
4509;DHT22;2267;48.816;9.230;2022-07-23T08:52:52;26.40;80.60
4509;DHT22;2267;48.816;9.230;2022-07-23T08:55:21;26.50;81.20
4509;DHT22;2267;48.816;9.230;2022-07-23T08:57:50;26.60;80.80
4509;DHT22;2267;48.816;9.230;2022-07-23T09:00:18;26.70;80.80
4509;DHT22;2267;48.816;9.230;2022-07-23T09:02:45;26.80;80.20
4509;DHT22;2267;48.816;9.230;2022-07-23T09:05:14;26.90;78.00
4509;DHT22;2267;48.816;9.230;2022-07-23T09:08:06;27.00;76.90
4509;DHT22;2267;48.816;9.230;2022-07-23T09:10:59;27.00;76.50
4509;DHT22;2267;48.816;9.230;2022-07-23T09:16:12;27.20;76.20
4509;DHT22;2267;48.816;9.230;2022-07-23T09:18:49;27.30;75.80
4509;DHT22;2267;48.816;9.230;2022-07-23T09:23:55;27.50;76.20
4509;DHT22;2267;48.816;9.230;2022-07-23T09:29:22;27.80;73.50
4509;DHT22;2267;48.816;9.230;2022-07-23T09:32:00;27.80;73.80
4509;DHT22;2267;48.816;9.230;2022-07-23T09:34:30;27.90;74.10
4509;DHT22;2267;48.816;9.230;2022-07-23T09:37:19;27.90;74.40
4509;DHT22;2267;48.816;9.230;2022-07-23T09:39:47;28.00;73.30
4509;DHT22;2267;48.816;9.230;2022-07-23T09:44:45;28.20;73.00
4509;DHT22;2267;48.816;9.230;2022-07-23T09:47:12;28.30;72.60
4509;DHT22;2267;48.816;9.230;2022-07-23T09:49:39;28.30;71.10
4509;DHT22;2267;48.816;9.230;2022-07-23T09:52:06;28.30;71.60
4509;DHT22;2267;48.816;9.230;2022-07-23T09:54:34;28.40;70.60
4509;DHT22;2267;48.816;9.230;2022-07-23T09:57:10;28.50;70.00
4509;DHT22;2267;48.816;9.230;2022-07-23T09:59:42;28.50;68.90
4509;DHT22;2267;48.816;9.230;2022-07-23T10:02:11;28.60;68.20
4509;DHT22;2267;48.816;9.230;2022-07-23T10:04:39;28.60;69.00
4509;DHT22;2267;48.816;9.230;2022-07-23T10:07:08;28.50;69.00
4509;DHT22;2267;48.816;9.230;2022-07-23T10:09:39;28.50;69.00
4509;DHT22;2267;48.816;9.230;2022-07-23T10:12:11;28.60;70.00
4509;DHT22;2267;48.816;9.230;2022-07-23T10:14:57;28.70;69.30
4509;DHT22;2267;48.816;9.230;2022-07-23T10:17:24;28.80;68.80
4509;DHT22;2267;48.816;9.230;2022-07-23T10:19:51;28.80;67.60
4509;DHT22;2267;48.816;9.230;2022-07-23T10:22:24;28.90;67.30
4509;DHT22;2267;48.816;9.230;2022-07-23T10:28:25;29.10;66.10
4509;DHT22;2267;48.816;9.230;2022-07-23T10:36:58;29.20;65.70
4509;DHT22;2267;48.816;9.230;2022-07-23T10:39:31;29.20;66.50
4509;DHT22;2267;48.816;9.230;2022-07-23T10:42:14;29.20;65.60
4509;DHT22;2267;48.816;9.230;2022-07-23T10:44:44;29.30;66.20
4509;DHT22;2267;48.816;9.230;2022-07-23T10:47:21;29.40;65.80
4509;DHT22;2267;48.816;9.230;2022-07-23T10:50:24;29.30;67.20
4509;DHT22;2267;48.816;9.230;2022-07-23T10:58:04;29.70;65.00
4509;DHT22;2267;48.816;9.230;2022-07-23T11:00:33;29.70;65.10
4509;DHT22;2267;48.816;9.230;2022-07-23T11:03:04;29.80;64.60
4509;DHT22;2267;48.816;9.230;2022-07-23T11:05:44;29.80;65.20
4509;DHT22;2267;48.816;9.230;2022-07-23T11:08:19;29.90;65.80
4509;DHT22;2267;48.816;9.230;2022-07-23T11:11:10;30.10;66.10
4509;DHT22;2267;48.816;9.230;2022-07-23T11:13:48;30.30;65.20
4509;DHT22;2267;48.816;9.230;2022-07-23T11:16:20;30.30;64.50
4509;DHT22;2267;48.816;9.230;2022-07-23T11:32:05;30.90;62.50
4509;DHT22;2267;48.816;9.230;2022-07-23T11:34:40;30.90;61.50
4509;DHT22;2267;48.816;9.230;2022-07-23T11:37:09;31.00;62.10
4509;DHT22;2267;48.816;9.230;2022-07-23T11:39:37;31.00;61.10
4509;DHT22;2267;48.816;9.230;2022-07-23T11:42:06;31.00;60.20
4509;DHT22;2267;48.816;9.230;2022-07-23T11:44:35;31.00;59.60
4509;DHT22;2267;48.816;9.230;2022-07-23T11:47:08;31.00;59.90
4509;DHT22;2267;48.816;9.230;2022-07-23T11:49:36;31.10;59.60
4509;DHT22;2267;48.816;9.230;2022-07-23T11:54:31;30.90;58.70
4509;DHT22;2267;48.816;9.230;2022-07-23T11:57:05;30.80;59.60
4509;DHT22;2267;48.816;9.230;2022-07-23T11:59:33;30.90;59.30
4509;DHT22;2267;48.816;9.230;2022-07-23T12:02:04;31.00;60.20
4509;DHT22;2267;48.816;9.230;2022-07-23T12:04:43;31.10;61.70
4509;DHT22;2267;48.816;9.230;2022-07-23T12:07:46;31.30;59.50
4509;DHT22;2267;48.816;9.230;2022-07-23T12:15:18;31.80;59.40
4509;DHT22;2267;48.816;9.230;2022-07-23T12:17:47;32.00;58.90
4509;DHT22;2267;48.816;9.230;2022-07-23T12:20:22;32.10;59.00
4509;DHT22;2267;48.816;9.230;2022-07-23T12:22:53;32.10;58.50
4509;DHT22;2267;48.816;9.230;2022-07-23T12:25:24;32.10;58.80
4509;DHT22;2267;48.816;9.230;2022-07-23T12:28:14;32.10;58.60
4509;DHT22;2267;48.816;9.230;2022-07-23T12:30:51;32.00;58.90
4509;DHT22;2267;48.816;9.230;2022-07-23T12:33:35;32.20;58.30
4509;DHT22;2267;48.816;9.230;2022-07-23T12:36:07;32.30;57.90
4509;DHT22;2267;48.816;9.230;2022-07-23T12:38:57;32.50;56.70
4509;DHT22;2267;48.816;9.230;2022-07-23T12:41:26;32.60;56.40
4509;DHT22;2267;48.816;9.230;2022-07-23T12:43:52;32.70;56.40
4509;DHT22;2267;48.816;9.230;2022-07-23T12:46:21;32.80;55.90
4509;DHT22;2267;48.816;9.230;2022-07-23T12:51:26;33.00;56.30
4509;DHT22;2267;48.816;9.230;2022-07-23T12:53:58;32.90;55.20
4509;DHT22;2267;48.816;9.230;2022-07-23T12:56:32;33.00;55.10
4509;DHT22;2267;48.816;9.230;2022-07-23T12:59:10;33.10;55.60
4509;DHT22;2267;48.816;9.230;2022-07-23T13:01:39;33.10;55.30
4509;DHT22;2267;48.816;9.230;2022-07-23T13:04:08;33.10;55.70
4509;DHT22;2267;48.816;9.230;2022-07-23T13:06:48;33.10;55.60
4509;DHT22;2267;48.816;9.230;2022-07-23T13:09:27;33.00;55.40
4509;DHT22;2267;48.816;9.230;2022-07-23T13:12:14;33.20;55.40
4509;DHT22;2267;48.816;9.230;2022-07-23T13:14:41;33.10;55.60
4509;DHT22;2267;48.816;9.230;2022-07-23T13:17:08;32.90;55.50
4509;DHT22;2267;48.816;9.230;2022-07-23T13:19:35;32.70;56.10
4509;DHT22;2267;48.816;9.230;2022-07-23T13:22:02;32.50;57.30
4509;DHT22;2267;48.816;9.230;2022-07-23T13:24:35;32.40;58.40
4509;DHT22;2267;48.816;9.230;2022-07-23T13:27:05;32.40;58.70
4509;DHT22;2267;48.816;9.230;2022-07-23T13:29:37;32.30;58.00
4509;DHT22;2267;48.816;9.230;2022-07-23T13:32:04;32.20;56.80
4509;DHT22;2267;48.816;9.230;2022-07-23T13:34:39;32.10;56.90
4509;DHT22;2267;48.816;9.230;2022-07-23T13:37:08;32.10;57.00
4509;DHT22;2267;48.816;9.230;2022-07-23T13:39:35;32.10;57.20
4509;DHT22;2267;48.816;9.230;2022-07-23T13:42:05;32.00;57.30
4509;DHT22;2267;48.816;9.230;2022-07-23T13:44:34;32.10;57.40
4509;DHT22;2267;48.816;9.230;2022-07-23T13:47:02;32.30;57.60
4509;DHT22;2267;48.816;9.230;2022-07-23T13:49:30;32.50;57.40
4509;DHT22;2267;48.816;9.230;2022-07-23T13:51:57;32.80;57.00
4509;DHT22;2267;48.816;9.230;2022-07-23T13:54:24;33.00;57.10
4509;DHT22;2267;48.816;9.230;2022-07-23T13:56:54;33.20;56.80
4509;DHT22;2267;48.816;9.230;2022-07-23T13:59:22;33.40;56.50
4509;DHT22;2267;48.816;9.230;2022-07-23T14:01:53;33.40;56.10
4509;DHT22;2267;48.816;9.230;2022-07-23T14:04:40;33.40;56.90
4509;DHT22;2267;48.816;9.230;2022-07-23T14:07:08;33.60;56.20
4509;DHT22;2267;48.816;9.230;2022-07-23T14:09:35;33.80;55.70
4509;DHT22;2267;48.816;9.230;2022-07-23T14:12:02;34.00;55.70
4509;DHT22;2267;48.816;9.230;2022-07-23T14:14:30;33.90;55.20
4509;DHT22;2267;48.816;9.230;2022-07-23T14:16:57;34.00;54.90
4509;DHT22;2267;48.816;9.230;2022-07-23T14:19:23;34.10;53.90
4509;DHT22;2267;48.816;9.230;2022-07-23T14:21:50;34.30;53.90
4509;DHT22;2267;48.816;9.230;2022-07-23T14:24:17;34.40;53.90
4509;DHT22;2267;48.816;9.230;2022-07-23T14:26:44;34.60;53.10
4509;DHT22;2267;48.816;9.230;2022-07-23T14:29:12;34.70;52.20
4509;DHT22;2267;48.816;9.230;2022-07-23T14:31:38;34.80;51.90
4509;DHT22;2267;48.816;9.230;2022-07-23T14:34:06;34.90;51.80
4509;DHT22;2267;48.816;9.230;2022-07-23T14:36:33;34.80;51.70
4509;DHT22;2267;48.816;9.230;2022-07-23T14:39:00;34.60;51.30
4509;DHT22;2267;48.816;9.230;2022-07-23T14:41:28;34.40;51.70
4509;DHT22;2267;48.816;9.230;2022-07-23T14:43:55;34.50;52.00
4509;DHT22;2267;48.816;9.230;2022-07-23T14:46:22;34.50;52.00
4509;DHT22;2267;48.816;9.230;2022-07-23T14:48:49;34.60;51.70
4509;DHT22;2267;48.816;9.230;2022-07-23T14:51:16;34.80;51.30
4509;DHT22;2267;48.816;9.230;2022-07-23T14:53:45;34.80;51.10
4509;DHT22;2267;48.816;9.230;2022-07-23T14:56:12;34.80;51.10
4509;DHT22;2267;48.816;9.230;2022-07-23T14:58:41;34.80;51.20
4509;DHT22;2267;48.816;9.230;2022-07-23T15:01:08;34.70;51.10
4509;DHT22;2267;48.816;9.230;2022-07-23T15:03:35;34.50;51.50
4509;DHT22;2267;48.816;9.230;2022-07-23T15:06:08;34.50;51.50
4509;DHT22;2267;48.816;9.230;2022-07-23T15:08:35;34.50;51.30
4509;DHT22;2267;48.816;9.230;2022-07-23T15:11:02;34.40;51.30
4509;DHT22;2267;48.816;9.230;2022-07-23T15:13:29;34.20;51.40
4509;DHT22;2267;48.816;9.230;2022-07-23T15:15:57;34.10;51.80
4509;DHT22;2267;48.816;9.230;2022-07-23T15:18:24;33.90;51.80
4509;DHT22;2267;48.816;9.230;2022-07-23T15:20:51;33.90;51.80
4509;DHT22;2267;48.816;9.230;2022-07-23T15:23:18;33.90;52.00
4509;DHT22;2267;48.816;9.230;2022-07-23T15:25:46;34.00;51.50
4509;DHT22;2267;48.816;9.230;2022-07-23T15:28:16;34.10;51.30
4509;DHT22;2267;48.816;9.230;2022-07-23T15:30:48;34.20;51.20
4509;DHT22;2267;48.816;9.230;2022-07-23T15:33:16;34.20;51.50
4509;DHT22;2267;48.816;9.230;2022-07-23T15:36:03;34.20;51.00
4509;DHT22;2267;48.816;9.230;2022-07-23T15:38:31;34.20;51.50
4509;DHT22;2267;48.816;9.230;2022-07-23T15:40:59;34.30;51.10
4509;DHT22;2267;48.816;9.230;2022-07-23T15:43:26;34.30;50.90
4509;DHT22;2267;48.816;9.230;2022-07-23T15:45:53;34.40;50.40
4509;DHT22;2267;48.816;9.230;2022-07-23T15:48:21;34.30;50.80
4509;DHT22;2267;48.816;9.230;2022-07-23T15:50:49;34.20;50.60
4509;DHT22;2267;48.816;9.230;2022-07-23T15:53:16;34.10;51.00
4509;DHT22;2267;48.816;9.230;2022-07-23T15:56:04;34.20;50.70
4509;DHT22;2267;48.816;9.230;2022-07-23T15:58:31;34.10;50.90
4509;DHT22;2267;48.816;9.230;2022-07-23T16:00:58;34.00;50.80
4509;DHT22;2267;48.816;9.230;2022-07-23T16:03:25;34.10;50.60
4509;DHT22;2267;48.816;9.230;2022-07-23T16:05:53;34.10;50.40
4509;DHT22;2267;48.816;9.230;2022-07-23T16:08:21;34.10;50.70
4509;DHT22;2267;48.816;9.230;2022-07-23T16:10:48;34.10;50.40
4509;DHT22;2267;48.816;9.230;2022-07-23T16:13:16;34.10;51.20
4509;DHT22;2267;48.816;9.230;2022-07-23T16:15:43;34.10;50.20
4509;DHT22;2267;48.816;9.230;2022-07-23T16:18:10;34.10;50.00
4509;DHT22;2267;48.816;9.230;2022-07-23T16:20:37;34.10;50.50
4509;DHT22;2267;48.816;9.230;2022-07-23T16:23:05;34.00;50.50
4509;DHT22;2267;48.816;9.230;2022-07-23T16:25:34;34.00;50.50
4509;DHT22;2267;48.816;9.230;2022-07-23T16:28:01;33.90;50.70
4509;DHT22;2267;48.816;9.230;2022-07-23T16:30:28;33.90;50.70
4509;DHT22;2267;48.816;9.230;2022-07-23T16:32:55;33.80;51.10
4509;DHT22;2267;48.816;9.230;2022-07-23T16:35:22;33.60;51.70
4509;DHT22;2267;48.816;9.230;2022-07-23T16:37:51;33.50;52.20
4509;DHT22;2267;48.816;9.230;2022-07-23T16:40:18;33.40;52.80
4509;DHT22;2267;48.816;9.230;2022-07-23T16:42:46;33.20;52.80
4509;DHT22;2267;48.816;9.230;2022-07-23T16:45:13;33.10;52.90
4509;DHT22;2267;48.816;9.230;2022-07-23T16:47:40;32.90;53.80
4509;DHT22;2267;48.816;9.230;2022-07-23T16:50:07;32.90;54.90
4509;DHT22;2267;48.816;9.230;2022-07-23T16:52:35;32.80;55.40
4509;DHT22;2267;48.816;9.230;2022-07-23T16:55:03;32.80;55.70
4509;DHT22;2267;48.816;9.230;2022-07-23T16:57:30;32.80;56.10
4509;DHT22;2267;48.816;9.230;2022-07-23T16:59:58;32.60;56.30
4509;DHT22;2267;48.816;9.230;2022-07-23T17:02:25;32.60;56.40